Forside
METAR-TAF:

METAR-TAF

Lufthavne :

Stigler, Oklahoma, USA

Breddekreds: 35-17-17N, længdekreds: 095-05-38W, højde: 183 m

Aktuelle vejr

Denne rapport blev lavet for 22 minutter siden, kl. 23:15 UTC
Vind 3 kt fra øst
Temperatur 13°C
Fugtighed 94%
Tryk 1021 hPa
Sigt: 16.1 km
Overskyet i en højde af 600 ft
let regn

METAR: KGZL 192315Z AUTO 10003KT 10SM -RA OVC006 13/12 A3014 RMK AO2

Tid: 18:37 (23:37 UTC)


TAF: fraværende

Vejrobservationer og prognoser fra mere end 4000 lufthavne (METAR og TAF).

De gule og røde prikker repræsenterer de meteorologiske stationer.

Flyt musen over at se navnet på stationen.

Så klik over at se vejr observationer og prognoser.

At skifte det kort: Klik på de grønne knapper med et sort kors for at zoome ind; på den grønne knap med en bindestreg for at zoome ud; eller på de grønne pile for tilstødende kort.


METAR-TAF: